Airfield :
LOGIN :

Register | Disclaimer

   EN    FR    IT 

 










Legend :    VFR   Marginal VFR   IFR   Intensive IFR   Very Intensive IFR
Visi :
Ceiling :
>= 8 km
>= 3000ft
5 to 8 km
1000 to 3000 ft
1500m to 5 km
500 to 1000 ft
800 to 1500m
200 to 500 ft
< 800m
< 200 ft
Symbols :   Thunderstorms  Fog  Heavy snow  Heavy precipitations  Wind > 20 kt
SIGMETs :     Misc.  Thunderstorms  Icing  Turbulence  Mountain Waves  Volcanic Ashes






- Airport Elevation : 1649 ft
- IATA code : HHN


EDFH - Frankfurt-Hahn Rhineland-Palatinate

CURRENT METAR :
  • 150650Z 15010KT CAVOK 13/12 Q1007

EXPIRED METARs :
  • 150620Z 15010KT CAVOK 12/12 Q1007
  • 150550Z 14011KT CAVOK 12/11 Q1007
  • 150520Z 14011KT CAVOK 12/11 Q1007
  • 150450Z 13010KT CAVOK 12/12 Q1007
  • 150420Z 14010KT CAVOK 12/11 Q1007

TAF TAF EDFH
Valid from the 15 at 06:00 until the 16 at 06:00 UTC


150500Z 1506/1606 15010KT CAVOK
BECMG 1510/1512 26010KT
TEMPO 1513/1517 4000 SHRA BKN010 BKN015CB
BECMG 1517/1519 BKN014
TEMPO 1517/1522 28015G25KT RA BKN008
TEMPO 1522/1606 BKN005



MET'MAP, your aeronautical weather chart ! - Copyright ORBIFLY December 2007 - Disclaimer

ORBIFLY MET'MAP TEAM :

Programming & Development : Alexandra Zaïnal
Concept & Development : Baudouin d'Aumeries
Co-Development & Prog : Marc-Olivier Méhu
Technical & hardware support : Manuel Goepfert

Contact : metmap@orbifly.com




SOURCES & CREDITS :

   NOAA